Terminal Aerodrome Forecast
Issued by NWS

Home | Current Version | Previous Version | Text Only | Print | Product List | Glossary On
Versions: 1 2 3 4 5 6 7 8 9 10 11 12 13 14
000
FTUS43 KILX 241821 AAA
TAFCMI
TAF AMD
KCMI 241821Z 2418/2518 22013G23KT P6SM VCTS BKN045CB
     FM242100 21010KT P6SM VCTS BKN040CB
     FM242300 21010KT P6SM -SHRA BKN050
      TEMPO 2423/2503 4SM -TSRA OVC030CB
     FM251000 VRB03KT 5SM SHRA VCTS BKN070CB
     FM251200 22004KT P6SM BKN040=

USA.gov is the U.S. government's official web portal to all federal, state and local government web resources and services.